« Back
NWS Peachtree City, Ga » Text Product » ATL Terminal Aerodrome Forecast


Printer-friendly Version
Current Version              Previous Versions:   1  2  3  4  5  6  7  8  9  

Terminal Aerodrome Forecast

196
FTUS42 KFFC 291401 AAA
TAFATL
TAF AMD
KATL 291401Z 2914/3018 33006KT P6SM SCT150 SCT250
     FM291500 32007KT P6SM SCT050 SCT250
     FM300000 27004KT P6SM SCT250
     FM301400 24006KT P6SM SCT045=



USA.gov is the U.S. government's official web portal to all federal, state and local government web resources and services.